createdAt,value
2023-05-14T00:01:10.652Z,12.16
2023-05-14T00:03:41.246Z,12.08
2023-05-14T00:06:10.970Z,11.99
2023-05-14T00:08:38.861Z,11.90
2023-05-14T00:11:09.134Z,11.78
2023-05-14T00:13:37.174Z,11.66
2023-05-14T00:16:05.527Z,11.55
2023-05-14T00:18:33.558Z,11.43
2023-05-14T00:21:01.647Z,11.29
2023-05-14T00:23:29.586Z,11.13
2023-05-14T00:25:57.538Z,10.97
2023-05-14T00:28:25.539Z,10.83
2023-05-14T00:30:53.461Z,10.72
2023-05-14T00:33:21.469Z,10.61
2023-05-14T00:35:49.349Z,10.52
2023-05-14T00:38:19.498Z,10.44
2023-05-14T00:40:51.485Z,10.40
2023-05-14T00:43:20.848Z,10.37
2023-05-14T00:45:53.121Z,10.36
2023-05-14T00:48:21.563Z,10.36
2023-05-14T00:50:49.765Z,10.32
2023-05-14T00:53:18.973Z,10.29
2023-05-14T00:55:47.085Z,10.25
2023-05-14T00:58:15.162Z,10.20
2023-05-14T01:00:43.113Z,10.16
2023-05-14T01:03:11.242Z,10.13
2023-05-14T01:06:12.504Z,10.12
2023-05-14T01:08:58.625Z,10.11
2023-05-14T01:11:31.065Z,10.08
2023-05-14T01:14:08.294Z,10.04
2023-05-14T01:16:36.940Z,9.96
2023-05-14T01:19:06.333Z,9.90
2023-05-14T01:21:38.920Z,9.83
2023-05-14T01:24:07.743Z,9.78
2023-05-14T01:26:36.052Z,9.70
2023-05-14T01:29:23.145Z,9.62
2023-05-14T01:31:51.581Z,9.51
2023-05-14T01:34:21.566Z,9.44
2023-05-14T01:36:50.075Z,9.38
2023-05-14T01:39:18.086Z,9.32
2023-05-14T01:41:47.113Z,9.26
2023-05-14T01:44:15.077Z,9.22
2023-05-14T01:46:43.027Z,9.16
2023-05-14T01:49:10.984Z,9.08
2023-05-14T01:51:39.038Z,9.00
2023-05-14T01:54:06.952Z,8.92
2023-05-14T01:56:34.842Z,8.85
2023-05-14T01:59:02.808Z,8.77
2023-05-14T02:01:30.899Z,8.70
2023-05-14T02:03:58.955Z,8.63
2023-05-14T02:06:27.213Z,8.56
2023-05-14T02:08:57.277Z,8.52
2023-05-14T02:11:25.271Z,8.49
2023-05-14T02:13:53.155Z,8.45
2023-05-14T02:16:21.087Z,8.40
2023-05-14T02:18:49.097Z,8.35
2023-05-14T02:21:17.186Z,8.32
2023-05-14T02:23:45.108Z,8.26
2023-05-14T02:26:13.188Z,8.20
2023-05-14T02:28:41.100Z,8.12
2023-05-14T02:31:09.202Z,8.07
2023-05-14T02:33:37.181Z,8.03
2023-05-14T02:36:05.982Z,7.98
2023-05-14T02:38:33.950Z,7.95
2023-05-14T02:41:01.873Z,7.94
2023-05-14T02:43:29.944Z,7.94
2023-05-14T02:45:57.990Z,7.93
2023-05-14T02:48:26.765Z,7.91
2023-05-14T02:50:54.710Z,7.91
2023-05-14T02:53:22.688Z,7.91
2023-05-14T02:55:50.665Z,7.90
2023-05-14T02:58:19.338Z,7.87
2023-05-14T03:00:53.963Z,7.87
2023-05-14T03:03:22.427Z,7.87
2023-05-14T03:05:51.264Z,7.89
2023-05-14T03:08:19.138Z,7.91
2023-05-14T03:10:47.101Z,7.94
2023-05-14T03:13:20.175Z,7.98
2023-05-14T03:15:48.833Z,8.01
2023-05-14T03:18:16.872Z,8.02
2023-05-14T03:20:44.870Z,8.08
2023-05-14T03:23:13.205Z,8.13
2023-05-14T03:25:41.344Z,8.18
2023-05-14T03:28:09.900Z,8.22
2023-05-14T03:30:37.884Z,8.27
2023-05-14T03:33:06.003Z,8.39
2023-05-14T03:35:34.039Z,8.50
2023-05-14T03:38:02.053Z,8.58
2023-05-14T03:40:30.199Z,8.67
2023-05-14T03:42:58.153Z,8.80
2023-05-14T03:45:27.093Z,8.94
2023-05-14T03:47:55.141Z,9.03
2023-05-14T03:50:25.718Z,9.08
2023-05-14T03:52:55.122Z,9.11
2023-05-14T03:55:23.283Z,9.18
2023-05-14T03:57:51.279Z,9.27
2023-05-14T04:00:19.643Z,9.38
2023-05-14T04:02:47.616Z,9.48
2023-05-14T04:05:16.864Z,9.59
2023-05-14T04:07:45.933Z,9.70
2023-05-14T04:10:13.998Z,9.82
2023-05-14T04:12:41.956Z,9.92
2023-05-14T04:15:10.976Z,10.04
2023-05-14T04:17:39.280Z,10.15
2023-05-14T04:20:08.065Z,10.25
2023-05-14T04:23:09.043Z,10.37
2023-05-14T04:25:36.977Z,10.51
2023-05-14T04:28:05.162Z,10.63
2023-05-14T04:30:33.064Z,10.74
2023-05-14T04:33:01.028Z,10.87
2023-05-14T04:35:29.382Z,11.00
2023-05-14T04:37:57.312Z,11.11
2023-05-14T04:40:25.746Z,11.24
2023-05-14T04:42:53.891Z,11.38
2023-05-14T04:45:21.906Z,11.47
2023-05-14T04:47:49.851Z,11.68
2023-05-14T04:50:17.907Z,12.85
2023-05-14T04:52:45.850Z,14.26
2023-05-14T04:55:13.743Z,15.31
2023-05-14T04:57:41.685Z,16.14
2023-05-14T05:00:10.316Z,16.58
2023-05-14T05:02:38.438Z,17.25
2023-05-14T05:05:06.549Z,17.65
2023-05-14T05:07:34.514Z,18.00
2023-05-14T05:10:02.842Z,18.25
2023-05-14T05:12:30.967Z,18.24
2023-05-14T05:14:58.939Z,18.42
2023-05-14T05:17:27.035Z,18.61
2023-05-14T05:19:55.316Z,18.89
2023-05-14T05:22:23.818Z,19.00
2023-05-14T05:24:51.788Z,19.07
2023-05-14T05:27:21.204Z,19.21
2023-05-14T05:29:49.213Z,19.52
2023-05-14T05:32:17.169Z,19.56
2023-05-14T05:34:45.480Z,19.75
2023-05-14T05:37:14.950Z,20.13
2023-05-14T05:39:42.951Z,20.60
2023-05-14T05:42:10.985Z,20.75
2023-05-14T05:44:39.020Z,21.00
2023-05-14T05:47:07.117Z,20.13
2023-05-14T05:49:36.908Z,19.31
2023-05-14T05:52:05.196Z,18.73
2023-05-14T05:54:33.177Z,18.48
2023-05-14T05:57:01.242Z,18.07
2023-05-14T05:59:29.093Z,18.01
2023-05-14T06:01:57.041Z,18.07
2023-05-14T06:04:25.117Z,19.05
2023-05-14T06:06:53.871Z,18.97
2023-05-14T06:09:21.785Z,18.93
2023-05-14T06:11:49.736Z,20.09
2023-05-14T06:14:17.650Z,20.27
2023-05-14T06:16:45.939Z,21.11
2023-05-14T06:19:14.044Z,21.50
2023-05-14T06:21:42.293Z,21.28
2023-05-14T06:24:10.769Z,21.47
2023-05-14T06:26:38.967Z,21.51
2023-05-14T06:29:06.862Z,21.26
2023-05-14T06:31:34.812Z,21.17
2023-05-14T06:34:02.783Z,21.25
2023-05-14T06:36:31.101Z,21.69
2023-05-14T06:38:59.095Z,21.65
2023-05-14T06:41:27.029Z,21.59
2023-05-14T06:43:55.468Z,21.32
2023-05-14T06:46:23.429Z,21.10
2023-05-14T06:48:53.325Z,21.01
2023-05-14T06:51:21.749Z,21.38
2023-05-14T06:53:49.840Z,21.68
2023-05-14T06:56:17.845Z,21.13
2023-05-14T06:58:45.742Z,21.36
2023-05-14T07:01:13.726Z,21.73
2023-05-14T07:03:41.679Z,22.24
2023-05-14T07:06:10.359Z,22.50
2023-05-14T07:08:40.336Z,22.31
2023-05-14T07:11:08.265Z,21.39
2023-05-14T07:13:36.376Z,20.81
2023-05-14T07:16:04.686Z,20.93
2023-05-14T07:18:32.888Z,21.57
2023-05-14T07:21:00.976Z,22.26
2023-05-14T07:23:28.989Z,22.42
2023-05-14T07:25:56.942Z,22.84
2023-05-14T07:28:24.821Z,23.07
2023-05-14T07:30:52.784Z,23.00
2023-05-14T07:33:21.120Z,22.89
2023-05-14T07:35:49.093Z,22.86
2023-05-14T07:38:17.235Z,23.40
2023-05-14T07:40:45.251Z,23.28
2023-05-14T07:43:14.125Z,23.50
2023-05-14T07:45:42.111Z,23.90
2023-05-14T07:48:10.198Z,23.78
2023-05-14T07:50:38.310Z,24.21
2023-05-14T07:53:06.431Z,23.92
2023-05-14T07:55:34.420Z,23.84
2023-05-14T07:58:02.510Z,24.30
2023-05-14T08:00:31.006Z,24.24
2023-05-14T08:02:59.271Z,24.29
2023-05-14T08:05:27.504Z,24.56
2023-05-14T08:07:55.505Z,24.89
2023-05-14T08:10:23.871Z,24.55
2023-05-14T08:12:52.084Z,24.69
2023-05-14T08:15:20.426Z,24.77
2023-05-14T08:17:48.716Z,24.85
2023-05-14T08:20:16.766Z,24.83
2023-05-14T08:25:26.747Z,24.67
2023-05-14T08:27:54.842Z,24.60
2023-05-14T08:30:23.461Z,24.67
2023-05-14T08:32:51.867Z,24.91
2023-05-14T08:35:20.119Z,24.67
2023-05-14T08:37:48.130Z,25.11
2023-05-14T08:40:16.549Z,25.45
2023-05-14T08:42:45.294Z,25.35
2023-05-14T08:45:16.349Z,25.81
2023-05-14T08:47:52.018Z,26.35
2023-05-14T08:50:22.737Z,26.28
2023-05-14T08:52:51.935Z,26.60
2023-05-14T08:55:19.832Z,26.51
2023-05-14T08:57:47.880Z,26.40
2023-05-14T09:00:16.155Z,26.02
2023-05-14T09:02:45.011Z,26.71
2023-05-14T09:05:13.503Z,26.68
2023-05-14T09:07:41.412Z,25.69
2023-05-14T09:10:09.499Z,25.84
2023-05-14T09:12:37.406Z,26.15
2023-05-14T09:15:06.844Z,25.70
2023-05-14T09:17:34.921Z,26.04
2023-05-14T09:20:04.331Z,25.94
2023-05-14T09:22:32.459Z,25.31
2023-05-14T09:25:11.196Z,24.70
2023-05-14T09:27:39.198Z,24.64
2023-05-14T09:30:09.366Z,25.00
2023-05-14T09:32:44.378Z,25.73
2023-05-14T09:35:17.903Z,25.74
2023-05-14T09:37:47.480Z,25.59
2023-05-14T09:40:16.303Z,25.18
2023-05-14T09:42:44.472Z,25.34
2023-05-14T09:45:12.432Z,25.62
2023-05-14T09:47:40.508Z,25.84
2023-05-14T09:50:08.944Z,25.67
2023-05-14T09:52:37.380Z,25.21
2023-05-14T09:55:05.785Z,24.74
2023-05-14T09:57:34.666Z,24.46
2023-05-14T10:00:03.018Z,24.04
2023-05-14T10:02:38.092Z,23.72
2023-05-14T10:05:06.923Z,23.70
2023-05-14T10:07:43.182Z,24.42
2023-05-14T10:10:14.031Z,24.83
2023-05-14T10:12:42.268Z,25.28
2023-05-14T10:15:20.043Z,25.34
2023-05-14T10:17:50.479Z,25.27
2023-05-14T10:20:18.457Z,25.13
2023-05-14T10:22:46.422Z,24.88
2023-05-14T10:25:14.389Z,25.14
2023-05-14T10:27:42.621Z,25.38
2023-05-14T10:30:14.801Z,25.84
2023-05-14T10:32:44.265Z,26.83
2023-05-14T10:35:17.143Z,26.84
2023-05-14T10:37:46.423Z,27.01
2023-05-14T10:40:14.710Z,27.54
2023-05-14T10:42:43.803Z,27.54
2023-05-14T10:45:15.494Z,28.19
2023-05-14T10:47:46.097Z,28.37
2023-05-14T10:50:15.438Z,27.95
2023-05-14T10:52:44.195Z,27.78
2023-05-14T10:55:16.280Z,27.81
2023-05-14T10:57:45.458Z,27.55
2023-05-14T11:00:14.770Z,27.30
2023-05-14T11:02:44.236Z,27.06
2023-05-14T11:05:17.555Z,26.37
2023-05-14T11:07:47.865Z,26.02
2023-05-14T11:10:19.860Z,25.62
2023-05-14T11:12:48.725Z,25.11
2023-05-14T11:15:18.389Z,24.45
2023-05-14T11:17:47.063Z,24.11
2023-05-14T11:20:15.113Z,24.20
2023-05-14T11:22:43.364Z,24.20
2023-05-14T11:25:14.747Z,24.21
2023-05-14T11:27:43.811Z,24.44
2023-05-14T11:30:19.234Z,24.61
2023-05-14T11:32:48.250Z,24.61
2023-05-14T11:35:17.202Z,24.58
2023-05-14T11:37:54.248Z,24.73
2023-05-14T11:40:22.889Z,24.92
2023-05-14T11:42:52.373Z,24.80
2023-05-14T11:45:27.291Z,24.53
2023-05-14T11:47:55.431Z,24.25
2023-05-14T11:50:23.782Z,23.99
2023-05-14T11:52:56.620Z,23.97
2023-05-14T11:55:24.520Z,23.88
2023-05-14T11:57:52.650Z,24.13
2023-05-14T12:00:22.258Z,24.77
2023-05-14T12:02:50.508Z,25.67
2023-05-14T12:05:18.922Z,26.25
2023-05-14T12:07:47.540Z,26.42
2023-05-14T12:10:15.556Z,26.50
2023-05-14T12:12:45.935Z,26.02
2023-05-14T12:15:14.611Z,26.18
2023-05-14T12:17:42.674Z,25.93
2023-05-14T12:20:11.359Z,25.76
2023-05-14T12:22:41.598Z,25.61
2023-05-14T12:25:16.027Z,25.65
2023-05-14T12:27:53.477Z,25.69
2023-05-14T12:30:22.209Z,25.66
2023-05-14T12:32:52.745Z,25.51
2023-05-14T12:35:22.586Z,25.35
2023-05-14T12:37:53.234Z,24.92
2023-05-14T12:40:21.214Z,24.69
2023-05-14T12:42:49.153Z,24.53
2023-05-14T12:45:17.176Z,24.45
2023-05-14T12:47:46.297Z,24.46
2023-05-14T12:50:14.232Z,24.70
2023-05-14T12:52:42.190Z,24.77
2023-05-14T12:55:10.264Z,24.96
2023-05-14T12:57:39.292Z,24.99
2023-05-14T13:00:13.881Z,24.84
2023-05-14T13:02:43.834Z,24.99
2023-05-14T13:05:12.432Z,25.49
2023-05-14T13:07:40.760Z,25.88
2023-05-14T13:10:12.032Z,25.66
2023-05-14T13:12:42.258Z,25.65
2023-05-14T13:15:12.034Z,25.62
2023-05-14T13:17:41.488Z,25.40
2023-05-14T13:20:10.552Z,25.11
2023-05-14T13:22:41.750Z,25.00
2023-05-14T13:25:10.175Z,24.91
2023-05-14T13:27:38.116Z,24.93
2023-05-14T13:30:07.009Z,24.97
2023-05-14T13:32:34.963Z,24.83
2023-05-14T13:35:02.978Z,24.72
2023-05-14T13:37:30.937Z,24.61
2023-05-14T13:39:58.846Z,24.48
2023-05-14T13:42:27.204Z,24.44
2023-05-14T13:44:56.429Z,24.58
2023-05-14T13:47:24.620Z,24.67
2023-05-14T13:49:53.494Z,24.89
2023-05-14T13:52:21.939Z,24.80
2023-05-14T13:54:49.953Z,24.94
2023-05-14T13:57:17.918Z,25.04
2023-05-14T13:59:47.384Z,24.93
2023-05-14T14:02:15.451Z,25.07
2023-05-14T14:04:43.553Z,25.09
2023-05-14T14:07:11.484Z,25.30
2023-05-14T14:09:40.888Z,25.27
2023-05-14T14:12:09.365Z,25.16
2023-05-14T14:14:37.248Z,24.88
2023-05-14T14:17:05.397Z,24.89
2023-05-14T14:19:33.608Z,24.88
2023-05-14T14:22:01.550Z,24.88
2023-05-14T14:24:29.687Z,24.97
2023-05-14T14:26:57.635Z,24.86
2023-05-14T14:29:25.933Z,24.65
2023-05-14T14:31:53.888Z,24.59
2023-05-14T14:34:21.846Z,24.53
2023-05-14T14:36:49.835Z,24.41
2023-05-14T14:39:17.788Z,24.24
2023-05-14T14:41:45.877Z,24.45
2023-05-14T14:44:13.928Z,24.69
2023-05-14T14:46:43.066Z,24.93
2023-05-14T14:49:10.945Z,25.16
2023-05-14T14:51:38.828Z,25.36
2023-05-14T14:54:06.770Z,25.64
2023-05-14T14:56:34.990Z,25.87
2023-05-14T14:59:03.919Z,25.69
2023-05-14T15:01:32.078Z,25.85
2023-05-14T15:04:00.031Z,25.93
2023-05-14T15:06:28.053Z,25.51
2023-05-14T15:08:55.985Z,25.22
2023-05-14T15:11:24.168Z,24.67
2023-05-14T15:13:52.183Z,24.40
2023-05-14T15:16:20.279Z,24.32
2023-05-14T15:18:48.248Z,24.16
2023-05-14T15:21:16.612Z,23.95
2023-05-14T15:23:44.666Z,23.75
2023-05-14T15:26:12.934Z,23.70
2023-05-14T15:28:41.082Z,23.75
2023-05-14T15:31:10.268Z,23.65
2023-05-14T15:33:38.538Z,23.67
2023-05-14T15:36:06.925Z,23.65
2023-05-14T15:38:35.002Z,23.49
2023-05-14T15:41:03.363Z,23.26
2023-05-14T15:43:34.387Z,23.09
2023-05-14T15:46:02.526Z,23.08
2023-05-14T15:48:30.549Z,23.10
2023-05-14T15:50:59.433Z,23.13
2023-05-14T15:53:27.393Z,23.26
2023-05-14T15:55:55.357Z,23.30
2023-05-14T15:58:23.652Z,23.33
2023-05-14T16:00:52.199Z,23.39
2023-05-14T16:03:20.294Z,23.42
2023-05-14T16:05:48.684Z,23.40
2023-05-14T16:08:16.620Z,23.29
2023-05-14T16:10:44.568Z,23.18
2023-05-14T16:13:13.037Z,23.09
2023-05-14T16:15:41.040Z,23.05
2023-05-14T16:18:09.185Z,22.89
2023-05-14T16:20:37.159Z,22.80
2023-05-14T16:23:05.380Z,22.66
2023-05-14T16:25:33.473Z,22.60
2023-05-14T16:28:01.529Z,22.47
2023-05-14T16:30:29.816Z,22.42
2023-05-14T16:32:57.881Z,22.32
2023-05-14T16:35:26.064Z,22.26
2023-05-14T16:37:54.529Z,22.23
2023-05-14T16:40:23.942Z,22.23
2023-05-14T16:42:52.398Z,22.23
2023-05-14T16:45:20.402Z,22.17
2023-05-14T16:47:48.378Z,22.17
2023-05-14T16:50:16.627Z,22.15
2023-05-14T16:52:44.592Z,22.14
2023-05-14T16:55:12.845Z,22.08
2023-05-14T16:57:40.802Z,22.03
2023-05-14T17:00:09.890Z,22.00
2023-05-14T17:02:38.180Z,22.01
2023-05-14T17:05:08.671Z,21.96
2023-05-14T17:07:38.735Z,21.91
2023-05-14T17:10:07.410Z,21.90
2023-05-14T17:12:35.423Z,21.87
2023-05-14T17:15:05.666Z,21.79
2023-05-14T17:17:34.294Z,21.73
2023-05-14T17:20:02.530Z,21.69
2023-05-14T17:22:30.767Z,21.63
2023-05-14T17:24:58.801Z,21.56
2023-05-14T17:27:26.758Z,21.45
2023-05-14T17:29:54.868Z,21.38
2023-05-14T17:32:22.996Z,21.29
2023-05-14T17:34:51.078Z,21.20
2023-05-14T17:37:19.213Z,21.10
2023-05-14T17:39:47.288Z,20.99
2023-05-14T17:42:15.381Z,20.88
2023-05-14T17:44:43.947Z,20.76
2023-05-14T17:47:11.890Z,20.63
2023-05-14T17:49:39.797Z,20.52
2023-05-14T17:52:07.984Z,20.40
2023-05-14T17:54:36.116Z,20.28
2023-05-14T17:57:04.305Z,20.16
2023-05-14T17:59:32.259Z,20.03
2023-05-14T18:02:00.355Z,19.86
2023-05-14T18:04:28.337Z,19.67
2023-05-14T18:06:56.606Z,19.48
2023-05-14T18:09:24.534Z,19.29
2023-05-14T18:11:53.754Z,19.11
2023-05-14T18:14:22.657Z,18.96
2023-05-14T18:16:50.589Z,18.79
2023-05-14T18:19:18.512Z,18.64
2023-05-14T18:21:48.246Z,18.48
2023-05-14T18:24:16.328Z,18.34
2023-05-14T18:26:44.464Z,18.21
2023-05-14T18:29:12.751Z,18.10
2023-05-14T18:31:40.757Z,17.99
2023-05-14T18:34:08.801Z,17.86
2023-05-14T18:36:36.978Z,17.72
2023-05-14T18:39:04.911Z,17.58
2023-05-14T18:41:33.093Z,17.46
2023-05-14T18:44:02.346Z,17.37
2023-05-14T18:46:30.510Z,17.28
2023-05-14T18:48:58.670Z,17.17
2023-05-14T18:51:26.657Z,17.08
2023-05-14T18:53:54.868Z,17.01
2023-05-14T18:56:22.820Z,16.94
2023-05-14T18:58:50.831Z,16.86
2023-05-14T19:01:18.950Z,16.78
2023-05-14T19:03:47.050Z,16.70
2023-05-14T19:06:15.370Z,16.60
2023-05-14T19:08:43.415Z,16.49
2023-05-14T19:11:11.549Z,16.40
2023-05-14T19:13:39.862Z,16.32
2023-05-14T19:16:07.815Z,16.24
2023-05-14T19:18:35.866Z,16.15
2023-05-14T19:21:04.130Z,16.07
2023-05-14T19:23:32.909Z,16.00
2023-05-14T19:26:01.290Z,15.92
2023-05-14T19:28:29.911Z,15.84
2023-05-14T19:30:57.926Z,15.77
2023-05-14T19:33:29.094Z,15.70
2023-05-14T19:35:57.542Z,15.63
2023-05-14T19:38:25.613Z,15.55
2023-05-14T19:40:56.888Z,15.48
2023-05-14T19:43:26.260Z,15.40
2023-05-14T19:45:54.277Z,15.31
2023-05-14T19:48:22.339Z,15.22
2023-05-14T19:50:50.396Z,15.12
2023-05-14T19:53:18.354Z,14.98
2023-05-14T19:55:46.407Z,14.84
2023-05-14T19:58:14.367Z,14.71
2023-05-14T20:00:42.945Z,14.59
2023-05-14T20:03:11.064Z,14.48
2023-05-14T20:05:39.524Z,14.38
2023-05-14T20:08:08.319Z,14.29
2023-05-14T20:10:36.664Z,14.20
2023-05-14T20:13:05.069Z,14.09
2023-05-14T20:15:33.034Z,13.99
2023-05-14T20:18:01.484Z,13.94
2023-05-14T20:20:32.935Z,13.89
2023-05-14T20:23:01.834Z,13.83
2023-05-14T20:25:30.114Z,13.76
2023-05-14T20:28:00.425Z,13.70
2023-05-14T20:30:28.495Z,13.70
2023-05-14T20:32:56.722Z,13.72
2023-05-14T20:35:24.892Z,13.77
2023-05-14T20:37:53.914Z,13.82
2023-05-14T20:40:22.296Z,13.87
2023-05-14T20:42:50.960Z,13.91
2023-05-14T20:45:19.132Z,13.94
2023-05-14T20:47:47.349Z,13.93
2023-05-14T20:50:15.846Z,13.89
2023-05-14T20:52:44.680Z,13.86
2023-05-14T20:55:13.568Z,13.83
2023-05-14T20:57:41.728Z,13.82
2023-05-14T21:00:12.574Z,13.81
2023-05-14T21:02:40.855Z,13.80
2023-05-14T21:05:09.449Z,13.80
2023-05-14T21:07:37.610Z,13.79
2023-05-14T21:10:07.041Z,13.76
2023-05-14T21:12:34.904Z,13.73
2023-05-14T21:15:02.917Z,13.70
2023-05-14T21:17:30.787Z,13.67
2023-05-14T21:19:58.695Z,13.66
2023-05-14T21:22:27.137Z,13.63
2023-05-14T21:24:55.655Z,13.59
2023-05-14T21:27:23.578Z,13.56
2023-05-14T21:29:51.478Z,13.52
2023-05-14T21:32:20.397Z,13.51
2023-05-14T21:34:48.273Z,13.49
2023-05-14T21:37:16.209Z,13.45
2023-05-14T21:39:44.152Z,13.40
2023-05-14T21:42:12.100Z,13.37
2023-05-14T21:44:40.154Z,13.34
2023-05-14T21:47:08.055Z,13.32
2023-05-14T21:49:36.043Z,13.29
2023-05-14T21:52:05.304Z,13.28
2023-05-14T21:54:33.387Z,13.24
2023-05-14T21:57:01.854Z,13.22
2023-05-14T21:59:29.977Z,13.19
2023-05-14T22:02:06.966Z,13.14
2023-05-14T22:04:36.360Z,13.08
2023-05-14T22:07:04.612Z,13.05
2023-05-14T22:09:32.723Z,13.02
2023-05-14T22:12:00.733Z,12.98
2023-05-14T22:14:28.929Z,12.96
2023-05-14T22:16:57.105Z,12.91
2023-05-14T22:19:26.877Z,12.87
2023-05-14T22:21:54.904Z,12.81
2023-05-14T22:24:22.811Z,12.75
2023-05-14T22:26:50.790Z,12.69
2023-05-14T22:29:18.736Z,12.65
2023-05-14T22:31:46.724Z,12.62
2023-05-14T22:34:14.668Z,12.59
2023-05-14T22:36:42.603Z,12.56
2023-05-14T22:39:12.692Z,12.59
2023-05-14T22:41:41.424Z,12.64
2023-05-14T22:44:09.410Z,12.72
2023-05-14T22:46:37.388Z,12.87
2023-05-14T22:49:05.301Z,13.02
2023-05-14T22:51:33.187Z,13.08
2023-05-14T22:54:01.258Z,13.13
2023-05-14T22:56:29.223Z,13.14
2023-05-14T22:59:00.389Z,13.14
2023-05-14T23:01:30.448Z,13.14
2023-05-14T23:03:58.547Z,13.17
2023-05-14T23:06:26.647Z,13.22
2023-05-14T23:08:54.583Z,13.25
2023-05-14T23:11:22.646Z,13.33
2023-05-14T23:13:50.733Z,13.39
2023-05-14T23:16:20.661Z,13.44
2023-05-14T23:18:48.723Z,13.48
2023-05-14T23:21:16.829Z,13.51
2023-05-14T23:23:45.574Z,13.52
2023-05-14T23:26:13.611Z,13.53
2023-05-14T23:28:41.612Z,13.52
2023-05-14T23:31:09.530Z,13.52
2023-05-14T23:33:39.805Z,13.53
2023-05-14T23:36:08.309Z,13.54
2023-05-14T23:38:36.374Z,13.53
2023-05-14T23:41:04.700Z,13.54
2023-05-14T23:43:33.934Z,13.53
2023-05-14T23:46:02.015Z,13.51
2023-05-14T23:48:30.103Z,13.49
2023-05-14T23:50:57.970Z,13.48
2023-05-14T23:53:25.974Z,13.50
2023-05-14T23:55:53.979Z,13.53
2023-05-14T23:58:21.924Z,13.52
